Time;durP1;ratioP1;P1;durP2;ratioP2;P2;SDS_P1;SDS_P2;PMS_P1;PMS_P2;Temp;Humidity;BMP_temperature;BMP_pressure;BME280_temperature;BME280_humidity;BME280_pressure;Samples;Min_cycle;Max_cycle;Signal;HPM_P1;HPM_P2
2023/12/22 00:01:31;;;;;;;2.15;1.33;;;;;;;;;;5051825;28;20020;-80
2023/12/22 00:03:57;;;;;;;3.08;2.10;;;;;;;;;;5053931;28;20377;-80
2023/12/22 00:06:22;;;;;;;6.10;3.08;;;;;;;;;;5051726;28;20035;-80
2023/12/22 00:08:48;;;;;;;1.77;1.35;;;;;;;;;;5050774;28;20423;-79
2023/12/22 00:11:14;;;;;;;6.60;2.13;;;;;;;;;;5051689;28;20029;-81
2023/12/22 00:13:39;;;;;;;1.70;0.98;;;;;;;;;;5051137;28;20598;-80
2023/12/22 00:16:07;;;;;;;1.10;1.00;;;;;;;;;;5051815;28;20366;-79
2023/12/22 00:18:33;;;;;;;2.45;1.75;;;;;;;;;;5053641;28;20044;-81
2023/12/22 00:20:58;;;;;;;1.48;0.90;;;;;;;;;;5053443;28;20377;-80
2023/12/22 00:23:24;;;;;;;2.58;1.73;;;;;;;;;;5052708;28;20037;-83
2023/12/22 00:25:49;;;;;;;1.65;1.30;;;;;;;;;;5054087;28;20032;-83
2023/12/22 00:28:15;;;;;;;2.83;1.65;;;;;;;;;;5051366;28;20478;-82
2023/12/22 00:30:46;;;;;;;3.60;1.25;;;;;;;;;;5052645;28;20037;-79
2023/12/22 00:33:12;;;;;;;2.83;1.88;;;;;;;;;;5051643;28;20496;-80
2023/12/22 00:35:38;;;;;;;0.80;0.80;;;;;;;;;;5051206;28;20048;-79
2023/12/22 00:38:06;;;;;;;0.65;0.65;;;;;;;;;;5050615;28;20414;-79
2023/12/22 00:40:41;;;;;;;1.67;1.58;;;;;;;;;;5053031;28;20029;-80
2023/12/22 00:43:07;;;;;;;2.22;1.00;;;;;;;;;;5050272;28;20480;-80
2023/12/22 00:45:36;;;;;;;3.28;1.45;;;;;;;;;;5049010;28;20029;-80
2023/12/22 00:48:05;;;;;;;2.95;2.35;;;;;;;;;;5048832;28;20425;-79
2023/12/22 00:50:39;;;;;;;1.30;1.20;;;;;;;;;;5049870;28;20417;-81
2023/12/22 00:53:05;;;;;;;2.35;2.15;;;;;;;;;;5053528;28;20072;-81
2023/12/22 00:55:43;;;;;;;0.60;0.60;;;;;;;;;;5051295;28;20063;-80
2023/12/22 00:58:09;;;;;;;0.88;0.85;;;;;;;;;;5050790;28;20033;-80
2023/12/22 01:00:43;;;;;;;1.60;1.13;;;;;;;;;;5050835;28;20414;-80
2023/12/22 01:03:28;;;;;;;1.10;1.08;;;;;;;;;;5049727;28;20036;-82
2023/12/22 01:06:17;;;;;;;2.47;2.00;;;;;;;;;;5047724;28;20155;-81
2023/12/22 01:08:57;;;;;;;1.33;1.23;;;;;;;;;;5051016;28;20036;-82
2023/12/22 01:11:29;;;;;;;2.58;2.00;;;;;;;;;;5049215;28;20282;-81
2023/12/22 01:14:15;;;;;;;3.20;1.50;;;;;;;;;;5068521;28;20028;-82
2023/12/22 01:16:51;;;;;;;2.60;1.58;;;;;;;;;;5050339;28;20036;-81
2023/12/22 01:19:28;;;;;;;1.95;1.83;;;;;;;;;;5048446;28;20033;-81
2023/12/22 01:22:00;;;;;;;3.70;1.83;;;;;;;;;;5050373;28;20021;-80
2023/12/22 01:24:29;;;;;;;1.23;1.15;;;;;;;;;;5050557;28;20040;-83
2023/12/22 01:26:58;;;;;;;2.92;1.88;;;;;;;;;;5048522;28;20389;-81
2023/12/22 01:29:27;;;;;;;1.08;1.08;;;;;;;;;;5049526;28;20111;-80
2023/12/22 01:31:56;;;;;;;1.98;1.83;;;;;;;;;;5085805;28;20028;-80
2023/12/22 01:34:27;;;;;;;2.25;1.65;;;;;;;;;;5049674;28;20162;-83
2023/12/22 01:36:59;;;;;;;4.70;2.05;;;;;;;;;;5054106;28;20028;-82
2023/12/22 01:39:28;;;;;;;1.85;1.02;;;;;;;;;;5052587;28;20028;-81
2023/12/22 01:42:03;;;;;;;2.97;2.23;;;;;;;;;;5052720;28;20469;-82
2023/12/22 01:44:50;;;;;;;3.03;2.28;;;;;;;;;;5052552;28;20280;-80
2023/12/22 01:47:20;;;;;;;3.45;1.85;;;;;;;;;;5083866;28;20155;-82
2023/12/22 01:49:50;;;;;;;3.88;2.10;;;;;;;;;;5051550;28;20420;-84
2023/12/22 01:58:21;;;;;;;2.60;2.40;;;;;;;;;;5059663;28;20179;-80
2023/12/22 02:00:54;;;;;;;3.33;2.00;;;;;;;;;;5053106;28;20539;-82
2023/12/22 02:03:27;;;;;;;2.15;1.70;;;;;;;;;;5052363;28;20676;-81
2023/12/22 02:05:56;;;;;;;1.35;1.25;;;;;;;;;;5049502;28;20365;-81
2023/12/22 02:09:04;;;;;;;0.98;0.93;;;;;;;;;;5049158;28;20051;-83
2023/12/22 02:11:38;;;;;;;0.10;0.10;;;;;;;;;;5045380;28;20029;-82
2023/12/22 02:14:16;;;;;;;1.52;1.42;;;;;;;;;;5049738;28;20190;-80
2023/12/22 02:16:56;;;;;;;1.17;1.17;;;;;;;;;;5048031;28;20040;-80
2023/12/22 02:19:45;;;;;;;1.65;1.55;;;;;;;;;;5081248;28;20718;-82
2023/12/22 02:22:17;;;;;;;4.93;1.63;;;;;;;;;;5050271;28;20484;-80
2023/12/22 02:24:52;;;;;;;1.98;1.45;;;;;;;;;;5049171;28;20040;-80
2023/12/22 02:27:20;;;;;;;0.80;0.80;;;;;;;;;;5053542;28;20282;-80
2023/12/22 02:30:26;;;;;;;1.00;1.00;;;;;;;;;;5054130;28;20029;-81
2023/12/22 02:33:03;;;;;;;2.53;2.33;;;;;;;;;;5085407;28;20029;-81
2023/12/22 02:35:38;;;;;;;1.08;1.08;;;;;;;;;;5053773;28;20024;-79
2023/12/22 02:38:06;;;;;;;2.38;2.17;;;;;;;;;;5053475;28;20036;-80
2023/12/22 02:40:45;;;;;;;1.50;1.38;;;;;;;;;;5054368;28;20115;-81
2023/12/22 02:43:14;;;;;;;4.68;1.95;;;;;;;;;;5050379;28;20072;-80
2023/12/22 02:45:40;;;;;;;2.83;1.90;;;;;;;;;;5056599;28;20029;-81
2023/12/22 02:48:15;;;;;;;2.03;0.98;;;;;;;;;;5053082;28;20473;-82
2023/12/22 02:50:41;;;;;;;2.78;1.80;;;;;;;;;;5053587;28;20045;-80
2023/12/22 02:53:07;;;;;;;1.48;1.35;;;;;;;;;;5052967;28;20785;-81
2023/12/22 02:55:35;;;;;;;4.03;2.33;;;;;;;;;;5053989;28;20024;-80
2023/12/22 02:58:10;;;;;;;3.70;1.17;;;;;;;;;;5052211;28;20029;-81
2023/12/22 03:00:56;;;;;;;2.83;2.08;;;;;;;;;;5055199;28;20049;-79
2023/12/22 03:03:34;;;;;;;3.38;2.60;;;;;;;;;;5055434;28;20397;-79
2023/12/22 03:06:11;;;;;;;1.95;1.38;;;;;;;;;;5055583;28;20504;-79
2023/12/22 03:08:36;;;;;;;2.50;1.70;;;;;;;;;;5052744;28;20396;-80
2023/12/22 03:11:05;;;;;;;4.65;2.75;;;;;;;;;;5054658;28;20032;-83
2023/12/22 03:13:40;;;;;;;1.27;1.17;;;;;;;;;;5049234;28;20123;-80
2023/12/22 03:16:09;;;;;;;0.30;0.30;;;;;;;;;;5053106;28;20032;-79
2023/12/22 03:18:39;;;;;;;1.50;1.40;;;;;;;;;;5052521;28;20040;-80
2023/12/22 03:21:10;;;;;;;1.15;1.10;;;;;;;;;;5053830;28;20036;-81
2023/12/22 03:23:57;;;;;;;2.15;2.03;;;;;;;;;;5048502;28;20037;-78
2023/12/22 03:26:22;;;;;;;2.47;2.25;;;;;;;;;;5048115;28;20125;-81
2023/12/22 03:28:59;;;;;;;1.60;1.23;;;;;;;;;;5049466;28;20107;-80
2023/12/22 03:31:25;;;;;;;1.50;1.40;;;;;;;;;;5070356;28;20031;-82
2023/12/22 03:33:51;;;;;;;1.05;1.02;;;;;;;;;;5057369;28;20036;-83
2023/12/22 03:36:16;;;;;;;5.55;2.85;;;;;;;;;;5056281;28;20123;-82
2023/12/22 03:38:42;;;;;;;1.20;1.20;;;;;;;;;;5059471;28;20076;-83
2023/12/22 03:41:07;;;;;;;0.88;0.88;;;;;;;;;;5057286;28;20132;-80
2023/12/22 03:43:33;;;;;;;2.15;1.95;;;;;;;;;;5058376;28;20043;-80
2023/12/22 03:45:59;;;;;;;1.80;1.67;;;;;;;;;;5055815;28;20025;-81
2023/12/22 03:48:25;;;;;;;3.15;2.88;;;;;;;;;;5058118;28;20035;-82
2023/12/22 03:50:50;;;;;;;3.40;2.78;;;;;;;;;;5058708;28;20029;-80
2023/12/22 03:53:16;;;;;;;2.22;1.55;;;;;;;;;;5058598;28;20033;-79
2023/12/22 03:55:41;;;;;;;2.95;1.73;;;;;;;;;;5057457;28;20032;-82
2023/12/22 03:58:07;;;;;;;2.03;1.92;;;;;;;;;;5062183;28;20067;-80
2023/12/22 04:00:33;;;;;;;4.78;2.03;;;;;;;;;;5059248;28;20548;-80
2023/12/22 04:02:59;;;;;;;2.80;2.15;;;;;;;;;;5057744;28;20091;-81
2023/12/22 04:05:27;;;;;;;2.90;2.53;;;;;;;;;;5059269;28;20029;-81
2023/12/22 04:07:52;;;;;;;1.00;1.00;;;;;;;;;;5059743;28;20025;-82
2023/12/22 04:10:18;;;;;;;3.53;2.65;;;;;;;;;;5060287;28;20031;-81
2023/12/22 04:12:44;;;;;;;4.93;3.10;;;;;;;;;;5056958;28;20033;-81
2023/12/22 04:15:12;;;;;;;1.58;1.42;;;;;;;;;;5062483;28;20021;-83
2023/12/22 04:17:38;;;;;;;4.07;2.42;;;;;;;;;;5056248;28;20028;-80
2023/12/22 04:20:05;;;;;;;2.63;2.13;;;;;;;;;;5059841;28;20036;-81
2023/12/22 04:22:31;;;;;;;1.80;1.70;;;;;;;;;;5060159;28;20025;-80
2023/12/22 04:24:56;;;;;;;3.75;1.38;;;;;;;;;;5056371;28;20035;-81
2023/12/22 04:27:22;;;;;;;1.42;1.05;;;;;;;;;;5059727;28;20038;-80
2023/12/22 04:29:47;;;;;;;1.17;1.10;;;;;;;;;;5057042;28;20020;-79
2023/12/22 04:32:13;;;;;;;1.08;1.08;;;;;;;;;;5058952;28;20029;-81
2023/12/22 04:34:38;;;;;;;2.60;2.40;;;;;;;;;;5055751;28;20023;-81
2023/12/22 04:37:04;;;;;;;1.45;1.27;;;;;;;;;;5057966;28;20117;-82
2023/12/22 04:39:29;;;;;;;8.07;1.73;;;;;;;;;;5051694;28;20170;-82
2023/12/22 04:41:55;;;;;;;2.03;1.77;;;;;;;;;;5055264;28;20373;-81
2023/12/22 04:44:20;;;;;;;1.70;1.60;;;;;;;;;;5055593;28;20028;-79
2023/12/22 04:46:45;;;;;;;3.28;2.20;;;;;;;;;;5057344;28;20049;-81
2023/12/22 04:49:11;;;;;;;2.45;1.90;;;;;;;;;;5055410;28;20033;-80
2023/12/22 04:51:39;;;;;;;3.30;2.42;;;;;;;;;;5052061;28;20058;-80
2023/12/22 04:54:04;;;;;;;1.08;0.90;;;;;;;;;;5054890;28;20493;-79
2023/12/22 04:56:30;;;;;;;5.43;2.08;;;;;;;;;;5056541;28;20032;-80
2023/12/22 04:58:55;;;;;;;4.38;2.22;;;;;;;;;;5055296;28;20044;-81
2023/12/22 05:01:21;;;;;;;1.92;1.80;;;;;;;;;;5050740;28;20476;-80
2023/12/22 05:03:46;;;;;;;1.95;1.27;;;;;;;;;;5049824;28;20111;-80
2023/12/22 05:06:12;;;;;;;2.40;2.08;;;;;;;;;;5048649;28;20497;-81
2023/12/22 05:08:37;;;;;;;1.33;1.23;;;;;;;;;;5052241;28;20445;-79
2023/12/22 05:11:03;;;;;;;4.35;3.10;;;;;;;;;;5051301;28;20032;-79
2023/12/22 05:13:29;;;;;;;2.03;1.58;;;;;;;;;;5050019;28;20035;-80
2023/12/22 05:15:54;;;;;;;5.15;2.35;;;;;;;;;;5051469;28;20029;-80
2023/12/22 05:18:20;;;;;;;3.05;2.28;;;;;;;;;;5049047;28;20035;-79
2023/12/22 05:20:48;;;;;;;2.97;1.67;;;;;;;;;;5048637;28;20083;-79
2023/12/22 05:23:13;;;;;;;2.80;2.55;;;;;;;;;;5050010;28;20033;-80
2023/12/22 05:25:40;;;;;;;2.30;2.08;;;;;;;;;;5051712;28;20059;-78
2023/12/22 05:28:06;;;;;;;4.40;2.80;;;;;;;;;;5051881;28;20024;-80
2023/12/22 05:30:32;;;;;;;3.22;2.03;;;;;;;;;;5051740;28;20035;-79
2023/12/22 05:32:58;;;;;;;2.60;1.80;;;;;;;;;;5048722;28;20060;-79
2023/12/22 05:35:23;;;;;;;1.83;1.63;;;;;;;;;;5052727;28;20488;-79
2023/12/22 05:37:49;;;;;;;4.97;2.42;;;;;;;;;;5050501;28;20070;-80
2023/12/22 05:40:14;;;;;;;3.35;3.00;;;;;;;;;;5049070;28;20028;-79
2023/12/22 05:42:40;;;;;;;4.32;2.20;;;;;;;;;;5050808;28;20021;-80
2023/12/22 05:45:06;;;;;;;3.90;2.53;;;;;;;;;;5051002;28;20059;-79
2023/12/22 05:47:32;;;;;;;2.45;2.25;;;;;;;;;;5051783;28;20496;-78
2023/12/22 05:49:58;;;;;;;4.43;2.53;;;;;;;;;;5049096;28;20057;-81
2023/12/22 05:52:23;;;;;;;1.38;1.27;;;;;;;;;;5048784;28;20025;-81
2023/12/22 05:54:49;;;;;;;3.10;2.72;;;;;;;;;;5049640;28;20025;-80
2023/12/22 05:57:14;;;;;;;3.03;2.72;;;;;;;;;;5048503;28;20021;-80
2023/12/22 05:59:40;;;;;;;1.33;1.25;;;;;;;;;;5051225;28;20367;-79
2023/12/22 06:02:05;;;;;;;1.25;1.15;;;;;;;;;;5049829;28;20025;-79
2023/12/22 06:04:33;;;;;;;2.38;2.15;;;;;;;;;;5052640;28;20559;-81
2023/12/22 06:07:09;;;;;;;2.53;1.52;;;;;;;;;;5045429;28;20539;-80
2023/12/22 06:09:35;;;;;;;5.88;2.25;;;;;;;;;;5048204;28;20432;-81
2023/12/22 06:12:00;;;;;;;1.58;1.48;;;;;;;;;;5048123;28;20028;-79
2023/12/22 06:14:26;;;;;;;4.00;2.55;;;;;;;;;;5047920;28;20024;-77
2023/12/22 06:16:53;;;;;;;1.88;1.45;;;;;;;;;;5048177;28;20162;-77
2023/12/22 06:19:18;;;;;;;2.75;2.35;;;;;;;;;;5047507;28;20029;-77
2023/12/22 06:21:44;;;;;;;2.58;2.38;;;;;;;;;;5047210;28;20036;-78
2023/12/22 06:24:09;;;;;;;3.63;2.17;;;;;;;;;;5047061;28;20120;-80
2023/12/22 06:26:35;;;;;;;4.68;3.17;;;;;;;;;;5047786;28;20033;-78
2023/12/22 06:29:00;;;;;;;1.88;1.80;;;;;;;;;;5049048;28;20028;-79
2023/12/22 06:31:25;;;;;;;6.80;2.53;;;;;;;;;;5047226;28;20037;-77
2023/12/22 06:33:51;;;;;;;1.85;1.75;;;;;;;;;;5048305;28;20074;-78
2023/12/22 06:36:24;;;;;;;2.55;1.95;;;;;;;;;;5046720;28;20024;-80
2023/12/22 06:38:54;;;;;;;2.97;2.20;;;;;;;;;;5046796;28;20025;-79
2023/12/22 06:41:26;;;;;;;1.63;1.52;;;;;;;;;;5047500;28;20059;-79
2023/12/22 06:43:52;;;;;;;2.13;1.42;;;;;;;;;;5048666;28;20029;-77
2023/12/22 06:46:18;;;;;;;2.08;1.60;;;;;;;;;;5050432;28;20493;-78
2023/12/22 06:48:45;;;;;;;2.22;2.00;;;;;;;;;;5047786;28;20465;-79
2023/12/22 06:51:23;;;;;;;2.80;2.47;;;;;;;;;;5047108;28;20044;-77
2023/12/22 06:53:49;;;;;;;5.57;1.88;;;;;;;;;;5048561;28;20025;-79
2023/12/22 06:56:21;;;;;;;5.63;2.78;;;;;;;;;;5045495;28;20461;-79
2023/12/22 06:58:51;;;;;;;2.65;1.45;;;;;;;;;;5050038;28;20146;-77
2023/12/22 07:01:32;;;;;;;3.45;2.95;;;;;;;;;;5050190;28;20032;-79
2023/12/22 07:04:01;;;;;;;1.02;0.95;;;;;;;;;;5049400;28;20033;-80
2023/12/22 07:06:29;;;;;;;2.08;1.90;;;;;;;;;;5054334;28;20054;-78
2023/12/22 07:09:11;;;;;;;2.22;1.58;;;;;;;;;;5051706;28;20059;-79
2023/12/22 07:11:49;;;;;;;4.68;2.22;;;;;;;;;;5051546;28;20128;-77
2023/12/22 07:14:15;;;;;;;2.30;1.95;;;;;;;;;;5049784;28;20108;-78
2023/12/22 07:16:41;;;;;;;2.05;1.88;;;;;;;;;;5052564;28;20111;-81
2023/12/22 07:19:07;;;;;;;2.80;2.00;;;;;;;;;;5051320;28;20021;-79
2023/12/22 07:21:33;;;;;;;2.88;2.50;;;;;;;;;;5053716;28;20067;-79
2023/12/22 07:23:58;;;;;;;3.40;2.10;;;;;;;;;;5050716;28;20067;-79
2023/12/22 07:26:24;;;;;;;2.17;1.98;;;;;;;;;;5044117;28;20024;-80
2023/12/22 07:28:50;;;;;;;3.03;2.72;;;;;;;;;;5048804;28;20055;-79
2023/12/22 07:31:15;;;;;;;4.80;4.15;;;;;;;;;;5051094;28;20051;-79
2023/12/22 07:33:40;;;;;;;3.40;3.10;;;;;;;;;;5049185;28;20017;-79
2023/12/22 07:36:06;;;;;;;5.50;3.65;;;;;;;;;;5046874;28;20029;-81
2023/12/22 07:38:32;;;;;;;4.97;3.13;;;;;;;;;;5049389;28;20480;-79
2023/12/22 07:40:58;;;;;;;4.05;3.25;;;;;;;;;;5047755;28;20029;-80
2023/12/22 07:43:24;;;;;;;2.22;2.03;;;;;;;;;;5051791;28;20033;-81
2023/12/22 07:45:50;;;;;;;5.38;3.65;;;;;;;;;;5050446;28;20079;-80
2023/12/22 07:48:16;;;;;;;2.90;2.47;;;;;;;;;;5051674;28;20484;-79
2023/12/22 07:50:42;;;;;;;3.65;2.70;;;;;;;;;;5051504;28;20029;-79
2023/12/22 07:53:08;;;;;;;2.47;2.28;;;;;;;;;;5055864;28;20035;-80
2023/12/22 07:55:34;;;;;;;2.67;2.17;;;;;;;;;;5053319;28;20036;-78
2023/12/22 07:57:59;;;;;;;4.18;1.77;;;;;;;;;;5052580;28;20047;-79
2023/12/22 08:00:25;;;;;;;3.05;2.45;;;;;;;;;;5053496;28;20060;-78
2023/12/22 08:02:52;;;;;;;10.10;4.88;;;;;;;;;;5051853;28;20041;-79
2023/12/22 08:05:18;;;;;;;4.18;2.70;;;;;;;;;;5051592;28;20465;-78
2023/12/22 08:07:44;;;;;;;2.72;2.47;;;;;;;;;;5047597;28;20091;-79
2023/12/22 08:10:09;;;;;;;4.03;2.45;;;;;;;;;;5050252;28;20029;-77
2023/12/22 08:12:35;;;;;;;2.45;1.95;;;;;;;;;;5050721;28;20031;-81
2023/12/22 08:15:01;;;;;;;3.17;2.55;;;;;;;;;;5082166;28;20029;-79
2023/12/22 08:17:27;;;;;;;1.90;1.77;;;;;;;;;;5050118;28;20033;-79
2023/12/22 08:19:52;;;;;;;3.10;1.58;;;;;;;;;;5050600;28;20037;-80
2023/12/22 08:22:18;;;;;;;2.22;2.05;;;;;;;;;;5051390;28;20095;-81
2023/12/22 08:24:43;;;;;;;5.10;3.10;;;;;;;;;;5050549;28;20048;-79
2023/12/22 08:27:09;;;;;;;1.45;1.35;;;;;;;;;;5049989;28;20055;-78
2023/12/22 08:29:34;;;;;;;2.70;2.50;;;;;;;;;;5049355;28;20458;-78
2023/12/22 08:32:00;;;;;;;2.72;2.50;;;;;;;;;;5052144;28;20033;-79
2023/12/22 08:34:26;;;;;;;2.75;2.55;;;;;;;;;;5050963;28;20090;-80
2023/12/22 08:36:52;;;;;;;3.15;2.70;;;;;;;;;;5049138;28;20036;-78
2023/12/22 08:39:17;;;;;;;1.77;1.63;;;;;;;;;;5050653;28;20028;-77
2023/12/22 08:41:43;;;;;;;2.92;2.00;;;;;;;;;;5051488;28;20017;-77
2023/12/22 08:44:08;;;;;;;2.20;1.98;;;;;;;;;;5050905;28;20784;-76
2023/12/22 08:46:34;;;;;;;2.67;1.88;;;;;;;;;;5050164;28;20119;-78
2023/12/22 08:49:00;;;;;;;2.85;2.53;;;;;;;;;;5049456;28;20591;-78
2023/12/22 08:51:26;;;;;;;5.53;2.88;;;;;;;;;;5049919;28;20049;-84
2023/12/22 08:53:54;;;;;;;3.40;3.10;;;;;;;;;;5048796;28;20035;-77
2023/12/22 08:56:21;;;;;;;3.83;3.50;;;;;;;;;;5049337;28;20036;-79
2023/12/22 08:58:46;;;;;;;9.32;5.50;;;;;;;;;;5050263;28;20044;-78
2023/12/22 09:01:15;;;;;;;4.63;3.65;;;;;;;;;;5049043;28;20025;-77
2023/12/22 09:03:45;;;;;;;6.13;4.70;;;;;;;;;;5050097;28;20466;-77
2023/12/22 09:06:13;;;;;;;7.95;3.70;;;;;;;;;;5050553;28;20106;-79
2023/12/22 09:08:38;;;;;;;6.93;4.93;;;;;;;;;;5047495;28;20032;-78
2023/12/22 09:11:04;;;;;;;4.72;3.72;;;;;;;;;;5047823;28;20047;-79
2023/12/22 09:13:29;;;;;;;6.00;3.33;;;;;;;;;;5047347;28;20029;-78
2023/12/22 09:15:57;;;;;;;11.98;4.05;;;;;;;;;;5048935;28;20397;-78
2023/12/22 09:18:23;;;;;;;4.18;3.78;;;;;;;;;;5048699;28;20529;-78
2023/12/22 09:20:48;;;;;;;5.38;4.30;;;;;;;;;;5049986;28;20025;-78
2023/12/22 09:23:14;;;;;;;4.72;3.38;;;;;;;;;;5050224;28;20353;-78
2023/12/22 09:25:39;;;;;;;4.50;3.63;;;;;;;;;;5047979;28;20036;-79
2023/12/22 09:28:05;;;;;;;5.13;3.33;;;;;;;;;;5047669;28;20025;-79
2023/12/22 09:30:31;;;;;;;4.65;2.95;;;;;;;;;;5047312;28;20024;-78
2023/12/22 09:32:57;;;;;;;4.15;3.25;;;;;;;;;;5045719;28;20032;-77
2023/12/22 09:35:24;;;;;;;6.75;3.35;;;;;;;;;;5046901;28;20044;-78
2023/12/22 09:37:50;;;;;;;4.95;3.33;;;;;;;;;;5048893;28;20104;-77
2023/12/22 09:40:15;;;;;;;5.18;3.65;;;;;;;;;;5048195;28;20167;-77
2023/12/22 09:42:42;;;;;;;4.38;3.40;;;;;;;;;;5047782;28;20025;-78
2023/12/22 09:45:10;;;;;;;5.00;4.03;;;;;;;;;;5047133;28;20048;-77
2023/12/22 09:47:37;;;;;;;6.13;3.28;;;;;;;;;;5047593;28;20508;-77
2023/12/22 09:50:05;;;;;;;9.63;5.15;;;;;;;;;;5045848;28;20039;-76
2023/12/22 09:52:32;;;;;;;6.25;3.30;;;;;;;;;;5048713;28;20409;-78
2023/12/22 09:54:58;;;;;;;5.95;4.05;;;;;;;;;;5049043;28;20059;-77
2023/12/22 09:57:25;;;;;;;3.28;2.97;;;;;;;;;;5049033;28;20033;-78
2023/12/22 09:59:53;;;;;;;3.90;3.33;;;;;;;;;;5047214;28;20044;-80
2023/12/22 10:02:18;;;;;;;7.55;5.30;;;;;;;;;;5044211;28;20754;-78
2023/12/22 10:04:44;;;;;;;7.75;3.95;;;;;;;;;;5048928;28;20051;-78
2023/12/22 10:07:13;;;;;;;7.18;4.93;;;;;;;;;;5045475;28;20056;-78
2023/12/22 10:09:40;;;;;;;6.10;4.22;;;;;;;;;;5047026;28;20036;-77
2023/12/22 10:12:06;;;;;;;7.13;5.05;;;;;;;;;;5048410;28;20033;-83
2023/12/22 10:14:35;;;;;;;6.15;5.07;;;;;;;;;;5046965;28;20028;-79
2023/12/22 10:17:01;;;;;;;13.75;4.32;;;;;;;;;;5046439;28;20037;-78
2023/12/22 10:19:29;;;;;;;8.40;4.88;;;;;;;;;;5046656;28;20024;-78
2023/12/22 10:21:54;;;;;;;5.15;3.45;;;;;;;;;;5049066;28;20138;-77
2023/12/22 10:24:44;;;;;;;5.97;5.18;;;;;;;;;;5047756;28;20052;-77
2023/12/22 10:27:10;;;;;;;10.27;6.38;;;;;;;;;;5047816;28;20033;-78
2023/12/22 10:29:36;;;;;;;4.03;3.63;;;;;;;;;;5046628;28;20033;-78
2023/12/22 10:32:03;;;;;;;6.15;5.05;;;;;;;;;;5046318;28;20032;-79
2023/12/22 10:34:29;;;;;;;6.75;4.93;;;;;;;;;;5046231;28;20032;-78
2023/12/22 10:36:55;;;;;;;4.47;3.38;;;;;;;;;;5045017;28;20388;-76
2023/12/22 10:39:23;;;;;;;8.30;5.28;;;;;;;;;;5047892;28;20021;-76
2023/12/22 10:41:49;;;;;;;6.35;4.25;;;;;;;;;;5046944;28;20483;-78
2023/12/22 10:44:17;;;;;;;2.92;2.53;;;;;;;;;;5045286;28;20029;-78
2023/12/22 10:46:43;;;;;;;4.70;3.65;;;;;;;;;;5045325;28;20040;-78
2023/12/22 10:49:08;;;;;;;7.43;4.95;;;;;;;;;;5043857;28;20078;-77
2023/12/22 10:51:36;;;;;;;9.02;4.88;;;;;;;;;;5042573;28;20040;-78
2023/12/22 10:54:04;;;;;;;6.63;4.25;;;;;;;;;;5044808;28;20100;-82
2023/12/22 10:56:30;;;;;;;6.90;4.43;;;;;;;;;;5045196;28;20120;-79
2023/12/22 10:58:55;;;;;;;5.75;3.60;;;;;;;;;;5048574;28;20139;-78
2023/12/22 11:01:21;;;;;;;13.27;4.20;;;;;;;;;;5047806;28;20049;-79
2023/12/22 11:03:50;;;;;;;6.35;4.18;;;;;;;;;;5049038;28;20040;-79
2023/12/22 11:06:16;;;;;;;6.18;4.97;;;;;;;;;;5049413;28;20023;-80
2023/12/22 11:08:44;;;;;;;6.10;4.30;;;;;;;;;;5047953;28;20039;-81
2023/12/22 11:11:42;;;;;;;3.95;3.55;;;;;;;;;;5046774;28;20079;-79
2023/12/22 11:14:07;;;;;;;5.90;4.10;;;;;;;;;;5034731;28;20554;-82
2023/12/22 11:16:34;;;;;;;4.93;4.15;;;;;;;;;;5047106;28;20060;-79
2023/12/22 11:19:06;;;;;;;8.77;4.57;;;;;;;;;;5046957;28;20040;-78
2023/12/22 11:21:32;;;;;;;1.02;1.02;;;;;;;;;;5048640;28;20039;-81
2023/12/22 11:23:58;;;;;;;1.30;1.20;;;;;;;;;;5050423;28;20381;-80
2023/12/22 11:26:24;;;;;;;0.45;0.45;;;;;;;;;;5049121;28;20028;-80
2023/12/22 11:28:51;;;;;;;3.65;1.33;;;;;;;;;;5047081;28;20523;-79
2023/12/22 11:31:17;;;;;;;2.33;1.02;;;;;;;;;;5048896;28;20033;-80
2023/12/22 11:33:50;;;;;;;1.75;1.10;;;;;;;;;;5048299;28;20029;-79
2023/12/22 11:36:17;;;;;;;0.50;0.40;;;;;;;;;;5046795;28;20029;-80
2023/12/22 11:38:44;;;;;;;0.32;0.32;;;;;;;;;;5045648;28;20055;-78
2023/12/22 11:41:15;;;;;;;1.85;0.95;;;;;;;;;;5048786;28;20083;-79
2023/12/22 11:43:41;;;;;;;0.63;0.63;;;;;;;;;;5047772;28;20033;-79
2023/12/22 11:46:08;;;;;;;0.57;0.55;;;;;;;;;;5048470;28;20025;-77
2023/12/22 11:48:34;;;;;;;0.10;0.10;;;;;;;;;;5049337;28;20029;-80
2023/12/22 11:51:00;;;;;;;0.63;0.63;;;;;;;;;;5047888;28;20017;-80
2023/12/22 11:53:32;;;;;;;0.30;0.30;;;;;;;;;;5052483;28;20063;-80
2023/12/22 11:56:09;;;;;;;0.30;0.30;;;;;;;;;;5050709;28;20032;-79
2023/12/22 11:58:51;;;;;;;0.73;0.73;;;;;;;;;;5052773;28;20512;-77
2023/12/22 12:01:17;;;;;;;1.08;0.38;;;;;;;;;;5052498;28;20021;-79
2023/12/22 12:03:51;;;;;;;0.40;0.40;;;;;;;;;;5048409;28;20033;-79
2023/12/22 12:06:30;;;;;;;0.95;0.68;;;;;;;;;;5048631;28;20043;-79
2023/12/22 12:09:01;;;;;;;0.30;0.30;;;;;;;;;;5052257;28;20539;-79
2023/12/22 12:11:51;;;;;;;0.40;0.40;;;;;;;;;;5051088;28;20366;-78
2023/12/22 12:14:22;;;;;;;0.47;0.40;;;;;;;;;;5052841;28;20021;-80
2023/12/22 12:16:48;;;;;;;0.40;0.40;;;;;;;;;;5051666;28;20503;-80
2023/12/22 12:19:18;;;;;;;0.47;0.40;;;;;;;;;;5051391;28;20036;-81
2023/12/22 12:21:45;;;;;;;0.40;0.40;;;;;;;;;;5049355;28;20032;-78
2023/12/22 12:24:10;;;;;;;0.30;0.30;;;;;;;;;;5050719;28;20033;-81
2023/12/22 12:26:36;;;;;;;0.40;0.40;;;;;;;;;;5051294;28;20517;-79
2023/12/22 12:29:02;;;;;;;0.40;0.35;;;;;;;;;;5051989;28;20040;-81
2023/12/22 12:31:38;;;;;;;0.30;0.30;;;;;;;;;;5048500;28;20028;-78
2023/12/22 12:34:04;;;;;;;1.17;0.98;;;;;;;;;;5049361;28;20052;-79
2023/12/22 12:36:31;;;;;;;0.52;0.47;;;;;;;;;;5049226;28;20419;-80
2023/12/22 12:39:09;;;;;;;0.30;0.30;;;;;;;;;;5049495;28;20025;-80
2023/12/22 12:41:41;;;;;;;3.65;0.75;;;;;;;;;;5046320;28;20485;-81
2023/12/22 12:44:08;;;;;;;0.20;0.20;;;;;;;;;;5051185;28;20032;-80
2023/12/22 12:46:35;;;;;;;0.38;0.30;;;;;;;;;;5051440;28;20396;-80
2023/12/22 12:49:08;;;;;;;0.25;0.25;;;;;;;;;;5048995;28;20025;-80
2023/12/22 12:51:43;;;;;;;0.10;0.10;;;;;;;;;;5051489;28;20029;-83
2023/12/22 12:54:10;;;;;;;0.40;0.40;;;;;;;;;;5051223;28;20033;-78
2023/12/22 12:56:37;;;;;;;0.10;0.10;;;;;;;;;;5048664;28;20040;-81
2023/12/22 12:59:07;;;;;;;0.70;0.70;;;;;;;;;;5048485;28;20053;-81
2023/12/22 13:01:37;;;;;;;0.20;0.20;;;;;;;;;;5050235;28;20082;-81
2023/12/22 13:04:03;;;;;;;0.30;0.30;;;;;;;;;;5043323;28;20031;-79
2023/12/22 13:06:29;;;;;;;0.28;0.28;;;;;;;;;;5049080;28;20029;-80
2023/12/22 13:08:54;;;;;;;0.52;0.43;;;;;;;;;;5049480;28;20025;-79
2023/12/22 13:11:24;;;;;;;0.40;0.40;;;;;;;;;;5049543;28;20033;-79
2023/12/22 13:13:50;;;;;;;;;;;;;;;;;;5048878;28;20028;-79
2023/12/22 13:16:20;;;;;;;0.38;0.38;;;;;;;;;;5049172;28;19913;-80
2023/12/22 13:18:45;;;;;;;;;;;;;;;;;;5049821;28;20441;-78
2023/12/22 13:21:11;;;;;;;0.20;0.20;;;;;;;;;;5050226;28;19959;-78
2023/12/22 13:23:36;;;;;;;0.73;0.73;;;;;;;;;;5049118;28;20059;-81
2023/12/22 13:26:04;;;;;;;0.10;0.10;;;;;;;;;;5049007;28;20029;-79
2023/12/22 13:28:30;;;;;;;1.30;0.60;;;;;;;;;;5048837;28;20040;-78
2023/12/22 13:30:55;;;;;;;1.27;0.73;;;;;;;;;;5044460;28;20032;-80
2023/12/22 13:33:21;;;;;;;0.75;0.55;;;;;;;;;;5049159;28;20028;-81
2023/12/22 13:35:48;;;;;;;0.57;0.40;;;;;;;;;;5049068;28;20497;-80
2023/12/22 13:38:13;;;;;;;0.20;0.20;;;;;;;;;;5081149;28;20021;-79
2023/12/22 13:40:44;;;;;;;1.13;0.60;;;;;;;;;;5050182;28;20035;-80
2023/12/22 13:43:09;;;;;;;0.30;0.30;;;;;;;;;;5048244;28;20040;-78
2023/12/22 13:45:35;;;;;;;0.20;0.20;;;;;;;;;;5050088;28;20033;-81
2023/12/22 13:48:00;;;;;;;1.88;0.60;;;;;;;;;;5047678;28;20025;-80
2023/12/22 13:50:26;;;;;;;0.38;0.35;;;;;;;;;;5048126;28;20087;-78
2023/12/22 13:52:51;;;;;;;0.30;0.30;;;;;;;;;;5049733;28;20033;-77
2023/12/22 13:55:18;;;;;;;0.28;0.28;;;;;;;;;;5050157;28;20749;-81
2023/12/22 13:57:44;;;;;;;0.63;0.45;;;;;;;;;;5048168;28;20154;-80
2023/12/22 14:00:18;;;;;;;0.40;0.40;;;;;;;;;;5049181;28;20155;-79
2023/12/22 14:02:51;;;;;;;1.67;0.60;;;;;;;;;;5050535;28;20469;-80
2023/12/22 14:05:17;;;;;;;0.50;0.50;;;;;;;;;;5048984;28;20047;-78
2023/12/22 14:07:46;;;;;;;0.85;0.57;;;;;;;;;;5049561;28;20039;-77
2023/12/22 14:10:14;;;;;;;0.70;0.70;;;;;;;;;;5049266;28;20355;-81
2023/12/22 14:12:40;;;;;;;1.23;0.75;;;;;;;;;;5049385;28;20033;-80
2023/12/22 14:15:06;;;;;;;0.60;0.30;;;;;;;;;;5049164;28;20040;-80
2023/12/22 14:17:32;;;;;;;0.28;0.28;;;;;;;;;;5046892;28;20040;-82
2023/12/22 14:19:58;;;;;;;0.20;0.20;;;;;;;;;;5048970;28;20029;-78
2023/12/22 14:22:24;;;;;;;0.55;0.55;;;;;;;;;;5048531;28;20032;-77
2023/12/22 14:24:49;;;;;;;0.45;0.45;;;;;;;;;;5048473;28;20037;-77
2023/12/22 14:27:17;;;;;;;0.30;0.30;;;;;;;;;;5049903;28;20358;-78
2023/12/22 14:29:43;;;;;;;0.50;0.50;;;;;;;;;;5050039;28;20040;-78
2023/12/22 14:32:08;;;;;;;0.28;0.28;;;;;;;;;;5049353;28;20465;-77
2023/12/22 14:34:34;;;;;;;2.83;0.60;;;;;;;;;;5047459;28;20028;-78
2023/12/22 14:37:00;;;;;;;0.43;0.43;;;;;;;;;;5048910;28;20578;-78
2023/12/22 14:39:26;;;;;;;0.30;0.30;;;;;;;;;;5047956;28;20039;-80
2023/12/22 14:41:52;;;;;;;3.33;2.25;;;;;;;;;;5050237;28;20021;-78
2023/12/22 14:44:17;;;;;;;5.40;2.83;;;;;;;;;;5048389;28;20124;-79
2023/12/22 14:46:43;;;;;;;0.40;0.40;;;;;;;;;;5048803;28;20036;-81
2023/12/22 14:49:08;;;;;;;0.85;0.68;;;;;;;;;;5047212;28;20035;-80
2023/12/22 14:51:38;;;;;;;0.38;0.38;;;;;;;;;;5044785;28;20056;-79
2023/12/22 14:54:06;;;;;;;0.40;0.40;;;;;;;;;;5048252;28;20366;-77
2023/12/22 14:56:32;;;;;;;1.52;0.90;;;;;;;;;;5046983;28;20361;-80